createdAt,value
2019-03-30T00:01:53.227Z,20.17
2019-03-30T00:04:21.712Z,21.47
2019-03-30T00:06:50.166Z,23.60
2019-03-30T00:09:18.627Z,23.67
2019-03-30T00:11:47.145Z,25.00
2019-03-30T00:14:15.702Z,24.27
2019-03-30T00:16:44.219Z,22.53
2019-03-30T00:19:12.702Z,20.67
2019-03-30T00:21:41.142Z,22.83
2019-03-30T00:24:09.620Z,21.50
2019-03-30T00:26:38.109Z,22.33
2019-03-30T00:29:06.765Z,23.90
2019-03-30T00:31:35.269Z,23.97
2019-03-30T00:34:03.964Z,26.33
2019-03-30T00:36:32.426Z,24.87
2019-03-30T00:39:00.870Z,25.23
2019-03-30T00:41:29.337Z,22.90
2019-03-30T00:43:57.813Z,25.53
2019-03-30T00:46:26.259Z,24.90
2019-03-30T00:48:54.739Z,23.23
2019-03-30T00:51:23.185Z,22.67
2019-03-30T00:53:51.659Z,24.20
2019-03-30T00:56:20.147Z,23.70
2019-03-30T00:58:48.596Z,23.30
2019-03-30T01:01:17.180Z,21.43
2019-03-30T01:03:45.651Z,19.80
2019-03-30T01:06:14.171Z,20.60
2019-03-30T01:08:42.645Z,20.30
2019-03-30T01:11:11.090Z,21.17
2019-03-30T01:13:39.574Z,22.23
2019-03-30T01:16:08.082Z,20.47
2019-03-30T01:18:36.557Z,19.60
2019-03-30T01:21:05.071Z,19.87
2019-03-30T01:23:33.539Z,20.20
2019-03-30T01:26:02.076Z,20.07
2019-03-30T01:28:30.594Z,21.43
2019-03-30T01:30:59.128Z,22.30
2019-03-30T01:33:27.585Z,21.43
2019-03-30T01:35:56.040Z,23.03
2019-03-30T01:38:24.524Z,21.97
2019-03-30T01:40:52.970Z,24.53
2019-03-30T01:43:21.430Z,22.90
2019-03-30T01:45:49.903Z,21.67
2019-03-30T01:48:18.363Z,22.57
2019-03-30T01:50:47.751Z,22.40
2019-03-30T01:53:16.205Z,21.40
2019-03-30T01:55:44.691Z,21.17
2019-03-30T01:58:13.130Z,21.77
2019-03-30T02:00:41.678Z,22.07
2019-03-30T02:03:10.212Z,24.10
2019-03-30T02:05:38.675Z,23.90
2019-03-30T02:08:07.123Z,23.00
2019-03-30T02:10:40.182Z,22.03
2019-03-30T02:13:08.647Z,20.90
2019-03-30T02:15:37.157Z,23.13
2019-03-30T02:18:05.713Z,22.17
2019-03-30T02:20:40.197Z,23.07
2019-03-30T02:23:08.783Z,22.83
2019-03-30T02:25:37.323Z,22.90
2019-03-30T02:28:07.129Z,23.17
2019-03-30T02:30:36.211Z,21.27
2019-03-30T02:33:04.747Z,20.70
2019-03-30T02:35:33.187Z,20.60
2019-03-30T02:38:01.672Z,22.97
2019-03-30T02:40:30.394Z,21.90
2019-03-30T02:42:58.847Z,23.70
2019-03-30T02:45:27.304Z,21.37
2019-03-30T02:47:55.770Z,21.63
2019-03-30T02:50:24.280Z,24.67
2019-03-30T02:52:52.756Z,24.83
2019-03-30T02:55:21.230Z,23.40
2019-03-30T02:57:49.711Z,23.23
2019-03-30T03:00:18.944Z,21.10
2019-03-30T03:02:47.494Z,20.40
2019-03-30T03:05:16.181Z,21.73
2019-03-30T03:07:44.662Z,23.63
2019-03-30T03:10:13.644Z,23.27
2019-03-30T03:12:42.114Z,23.17
2019-03-30T03:15:11.339Z,23.07
2019-03-30T03:17:39.860Z,23.00
2019-03-30T03:20:08.516Z,23.53
2019-03-30T03:22:36.994Z,23.37
2019-03-30T03:25:07.012Z,25.13
2019-03-30T03:27:35.475Z,24.97
2019-03-30T03:30:05.069Z,26.63
2019-03-30T03:32:33.607Z,27.00
2019-03-30T03:35:02.238Z,26.10
2019-03-30T03:37:44.601Z,26.87
2019-03-30T03:40:01.045Z,29.87
2019-03-30T03:42:29.592Z,28.17
2019-03-30T03:44:58.108Z,27.90
2019-03-30T03:47:26.582Z,26.97
2019-03-30T03:49:55.125Z,25.67
2019-03-30T03:52:23.709Z,26.70
2019-03-30T03:54:53.312Z,25.37
2019-03-30T03:57:23.336Z,26.10
2019-03-30T03:59:53.452Z,25.67
2019-03-30T04:02:25.234Z,24.73
2019-03-30T04:04:55.634Z,26.83
2019-03-30T04:07:24.727Z,25.93
2019-03-30T04:09:56.251Z,27.67
2019-03-30T04:12:25.648Z,27.40
2019-03-30T04:14:54.267Z,28.33
2019-03-30T04:17:22.919Z,27.30
2019-03-30T04:19:51.417Z,28.37
2019-03-30T04:22:19.942Z,29.03
2019-03-30T04:24:48.491Z,26.63
2019-03-30T04:27:16.928Z,27.23
2019-03-30T04:29:45.405Z,24.83
2019-03-30T04:32:13.951Z,24.80
2019-03-30T04:34:42.420Z,26.37
2019-03-30T04:37:10.899Z,23.63
2019-03-30T04:39:39.368Z,24.17
2019-03-30T04:42:07.811Z,23.57
2019-03-30T04:44:36.279Z,25.03
2019-03-30T04:47:04.719Z,23.47
2019-03-30T04:49:33.208Z,24.07
2019-03-30T04:52:01.667Z,23.70
2019-03-30T04:54:30.107Z,23.97
2019-03-30T04:56:58.576Z,24.00
2019-03-30T04:59:27.019Z,22.73
2019-03-30T05:01:55.486Z,23.93
2019-03-30T05:04:23.936Z,24.33
2019-03-30T05:06:52.379Z,24.17
2019-03-30T05:09:20.855Z,19.50
2019-03-30T05:11:49.330Z,21.77
2019-03-30T05:14:17.786Z,21.63
2019-03-30T05:16:46.272Z,21.20
2019-03-30T05:19:14.739Z,20.80
2019-03-30T05:21:43.229Z,20.60
2019-03-30T05:24:11.817Z,19.90
2019-03-30T05:26:40.257Z,18.57
2019-03-30T05:29:08.734Z,18.60
2019-03-30T05:31:37.212Z,20.70
2019-03-30T05:34:05.679Z,22.17
2019-03-30T05:36:34.314Z,21.30
2019-03-30T05:39:02.774Z,19.37
2019-03-30T05:41:31.243Z,19.00
2019-03-30T05:43:59.765Z,20.97
2019-03-30T05:46:28.240Z,19.87
2019-03-30T05:48:56.697Z,19.53
2019-03-30T05:51:25.168Z,20.47
2019-03-30T05:53:53.644Z,19.73
2019-03-30T05:56:22.091Z,20.27
2019-03-30T05:58:50.565Z,22.07
2019-03-30T06:01:19.038Z,20.63
2019-03-30T06:03:47.490Z,18.90
2019-03-30T06:06:15.958Z,18.67
2019-03-30T06:08:44.430Z,19.63
2019-03-30T06:11:12.867Z,19.77
2019-03-30T06:13:41.622Z,18.30
2019-03-30T06:16:10.054Z,19.30
2019-03-30T06:18:38.531Z,18.57
2019-03-30T06:21:07.007Z,18.03
2019-03-30T06:23:35.447Z,17.37
2019-03-30T06:26:04.002Z,17.73
2019-03-30T06:28:32.537Z,19.37
2019-03-30T06:31:01.024Z,18.30
2019-03-30T06:33:29.475Z,17.30
2019-03-30T06:35:57.942Z,18.07
2019-03-30T06:38:26.417Z,17.33
2019-03-30T06:40:54.903Z,17.97
2019-03-30T06:43:23.351Z,17.73
2019-03-30T06:45:51.822Z,16.83
2019-03-30T06:48:20.278Z,17.83
2019-03-30T06:50:48.739Z,17.20
2019-03-30T06:53:17.210Z,16.83
2019-03-30T06:55:45.696Z,15.67
2019-03-30T06:58:14.179Z,15.27
2019-03-30T07:00:42.795Z,15.93
2019-03-30T07:03:11.277Z,16.27
2019-03-30T07:05:40.997Z,15.00
2019-03-30T07:08:14.771Z,14.43
2019-03-30T07:10:45.360Z,14.23
2019-03-30T07:13:14.560Z,15.50
2019-03-30T07:15:46.976Z,14.17
2019-03-30T07:18:16.251Z,14.83
2019-03-30T07:20:44.686Z,15.23
2019-03-30T07:23:13.991Z,14.63
2019-03-30T07:25:42.440Z,15.27
2019-03-30T07:28:10.910Z,14.10
2019-03-30T07:30:39.440Z,14.47
2019-03-30T07:33:07.923Z,14.87
2019-03-30T07:35:36.368Z,14.83
2019-03-30T07:38:04.910Z,14.10
2019-03-30T07:40:33.995Z,13.77
2019-03-30T07:43:02.795Z,13.37
2019-03-30T07:45:31.243Z,14.77
2019-03-30T07:47:59.733Z,13.37
2019-03-30T07:50:28.182Z,13.23
2019-03-30T07:52:56.629Z,14.27
2019-03-30T07:55:25.112Z,13.67
2019-03-30T07:57:53.580Z,13.10
2019-03-30T08:00:22.177Z,13.40
2019-03-30T08:02:50.623Z,12.43
2019-03-30T08:05:19.183Z,14.10
2019-03-30T08:07:47.734Z,13.67
2019-03-30T08:10:16.761Z,12.30
2019-03-30T08:12:45.331Z,13.70
2019-03-30T08:15:14.822Z,12.63
2019-03-30T08:17:43.307Z,12.23
2019-03-30T08:20:12.022Z,12.23
2019-03-30T08:22:40.475Z,12.50
2019-03-30T08:25:09.019Z,11.80
2019-03-30T08:27:37.565Z,12.23
2019-03-30T08:30:07.059Z,12.50
2019-03-30T08:32:35.554Z,12.50
2019-03-30T08:35:04.783Z,11.53
2019-03-30T08:37:33.226Z,10.83
2019-03-30T08:40:01.675Z,10.87
2019-03-30T08:42:30.146Z,11.27
2019-03-30T08:44:58.632Z,11.03
2019-03-30T08:47:27.074Z,10.67
2019-03-30T08:49:55.549Z,10.90
2019-03-30T08:52:24.019Z,11.23
2019-03-30T08:54:52.490Z,11.47
2019-03-30T08:57:20.957Z,11.10
2019-03-30T08:59:55.302Z,12.03
2019-03-30T09:02:23.779Z,11.17
2019-03-30T09:04:52.228Z,11.60
2019-03-30T09:07:20.714Z,11.00
2019-03-30T09:09:49.219Z,11.73
2019-03-30T09:12:17.695Z,11.53
2019-03-30T09:14:46.219Z,10.90
2019-03-30T09:17:14.747Z,11.93
2019-03-30T09:19:43.210Z,10.03
2019-03-30T09:22:11.662Z,11.65
2019-03-30T09:24:40.148Z,11.33
2019-03-30T09:27:08.623Z,10.18
2019-03-30T09:29:37.067Z,10.80
2019-03-30T09:32:14.309Z,11.15
2019-03-30T09:34:35.789Z,9.58
2019-03-30T09:37:04.322Z,10.28
2019-03-30T09:39:32.782Z,11.57
2019-03-30T09:42:01.252Z,10.53
2019-03-30T09:44:29.713Z,11.60
2019-03-30T09:46:58.190Z,10.32
2019-03-30T09:49:26.648Z,11.10
2019-03-30T09:51:55.198Z,10.35
2019-03-30T09:54:24.271Z,11.00
2019-03-30T09:56:52.912Z,11.73
2019-03-30T09:59:21.399Z,10.75
2019-03-30T10:01:50.218Z,10.45
2019-03-30T10:04:18.700Z,11.15
2019-03-30T10:06:47.163Z,11.00
2019-03-30T10:09:15.642Z,12.00
2019-03-30T10:11:44.099Z,10.55
2019-03-30T10:14:12.583Z,10.40
2019-03-30T10:16:41.031Z,10.32
2019-03-30T10:19:09.504Z,11.38
2019-03-30T10:21:37.988Z,11.93
2019-03-30T10:24:06.449Z,12.33
2019-03-30T10:26:34.915Z,10.58
2019-03-30T10:29:03.513Z,10.50
2019-03-30T10:31:31.984Z,10.45
2019-03-30T10:34:00.431Z,10.55
2019-03-30T10:36:28.917Z,10.45
2019-03-30T10:38:57.366Z,10.78
2019-03-30T10:41:25.874Z,9.43
2019-03-30T10:43:54.342Z,10.15
2019-03-30T10:46:22.795Z,10.00
2019-03-30T10:48:51.275Z,8.78
2019-03-30T10:51:19.760Z,9.05
2019-03-30T10:53:48.239Z,9.58
2019-03-30T10:56:16.680Z,8.95
2019-03-30T10:58:45.119Z,9.40
2019-03-30T11:01:13.660Z,9.25
2019-03-30T11:03:42.127Z,9.53
2019-03-30T11:06:11.197Z,8.93
2019-03-30T11:08:39.649Z,9.30
2019-03-30T11:11:08.228Z,9.60
2019-03-30T11:13:36.706Z,9.08
2019-03-30T11:16:05.145Z,8.28
2019-03-30T11:18:33.617Z,8.93
2019-03-30T11:21:02.078Z,7.78
2019-03-30T11:23:30.815Z,7.83
2019-03-30T11:25:59.263Z,8.88
2019-03-30T11:28:27.735Z,8.38
2019-03-30T11:30:56.205Z,9.43
2019-03-30T11:33:24.669Z,9.23
2019-03-30T11:35:53.222Z,8.98
2019-03-30T11:38:21.769Z,9.15
2019-03-30T11:40:50.249Z,14.25
2019-03-30T11:43:18.691Z,8.00
2019-03-30T11:45:47.247Z,8.35
2019-03-30T11:48:15.693Z,8.18
2019-03-30T11:50:44.155Z,8.10
2019-03-30T11:53:12.598Z,7.78
2019-03-30T11:55:41.081Z,7.50
2019-03-30T11:58:09.532Z,8.48
2019-03-30T12:00:38.079Z,8.10
2019-03-30T12:03:06.522Z,8.38
2019-03-30T12:05:35.028Z,8.55
2019-03-30T12:08:03.607Z,8.98
2019-03-30T12:10:32.141Z,8.43
2019-03-30T12:13:00.630Z,8.50
2019-03-30T12:15:29.160Z,8.23
2019-03-30T12:17:57.646Z,10.78
2019-03-30T12:20:26.098Z,13.08
2019-03-30T12:22:54.652Z,9.83
2019-03-30T12:25:34.904Z,9.58
2019-03-30T12:27:53.507Z,11.43
2019-03-30T12:30:22.003Z,9.68
2019-03-30T12:32:50.503Z,10.18
2019-03-30T12:35:18.942Z,9.05
2019-03-30T12:37:47.392Z,10.15
2019-03-30T12:40:16.211Z,9.35
2019-03-30T12:42:44.662Z,10.08
2019-03-30T12:45:14.087Z,10.15
2019-03-30T12:47:42.566Z,9.55
2019-03-30T12:50:11.285Z,9.03
2019-03-30T12:52:39.884Z,9.60
2019-03-30T12:55:08.569Z,8.85
2019-03-30T12:57:37.031Z,8.68
2019-03-30T13:00:07.637Z,6.78
2019-03-30T13:02:36.114Z,8.90
2019-03-30T13:05:07.447Z,7.55
2019-03-30T13:07:35.843Z,9.10
2019-03-30T13:10:05.932Z,8.65
2019-03-30T13:12:35.068Z,7.33
2019-03-30T13:15:04.462Z,9.80
2019-03-30T13:17:32.954Z,9.50
2019-03-30T13:20:01.437Z,9.35
2019-03-30T13:22:29.995Z,9.05
2019-03-30T13:24:58.487Z,9.80
2019-03-30T13:27:26.953Z,8.88
2019-03-30T13:29:55.434Z,7.78
2019-03-30T13:32:23.883Z,9.85
2019-03-30T13:34:52.360Z,8.58
2019-03-30T13:37:21.148Z,8.03
2019-03-30T13:39:49.623Z,10.70
2019-03-30T13:42:18.181Z,10.65
2019-03-30T13:44:46.721Z,11.33
2019-03-30T13:47:15.194Z,11.10
2019-03-30T13:49:43.679Z,8.80
2019-03-30T13:52:12.485Z,9.93
2019-03-30T13:54:40.947Z,9.83
2019-03-30T13:57:10.078Z,10.35
2019-03-30T13:59:38.571Z,10.68
2019-03-30T14:02:07.157Z,8.80
2019-03-30T14:04:35.636Z,8.45
2019-03-30T14:07:04.067Z,9.18
2019-03-30T14:09:32.548Z,9.75
2019-03-30T14:12:01.024Z,9.98
2019-03-30T14:14:29.475Z,10.23
2019-03-30T14:16:57.967Z,8.43
2019-03-30T14:19:26.407Z,9.08
2019-03-30T14:21:54.872Z,8.23
2019-03-30T14:24:23.315Z,9.18
2019-03-30T14:26:51.866Z,7.65
2019-03-30T14:29:20.323Z,7.85
2019-03-30T14:31:48.825Z,7.70
2019-03-30T14:34:17.263Z,9.30
2019-03-30T14:36:45.743Z,9.83
2019-03-30T14:39:14.185Z,8.85
2019-03-30T14:41:42.656Z,7.78
2019-03-30T14:44:11.131Z,9.38
2019-03-30T14:46:39.611Z,8.95
2019-03-30T14:49:08.057Z,8.93
2019-03-30T14:51:36.550Z,9.05
2019-03-30T14:54:05.381Z,8.60
2019-03-30T14:56:44.830Z,8.50
2019-03-30T14:59:10.180Z,8.95
2019-03-30T15:01:37.111Z,8.68
2019-03-30T15:04:05.708Z,9.33
2019-03-30T15:06:34.264Z,6.37
2019-03-30T15:09:02.728Z,8.08
2019-03-30T15:11:31.207Z,8.20
2019-03-30T15:13:59.699Z,8.38
2019-03-30T15:16:28.151Z,7.30
2019-03-30T15:18:56.622Z,12.45
2019-03-30T15:21:25.083Z,8.15
2019-03-30T15:23:53.563Z,6.70
2019-03-30T15:26:22.327Z,8.38
2019-03-30T15:28:50.871Z,8.13
2019-03-30T15:31:19.438Z,8.58
2019-03-30T15:33:47.871Z,10.20
2019-03-30T15:36:16.345Z,7.90
2019-03-30T15:38:44.803Z,8.58
2019-03-30T15:41:13.342Z,8.08
2019-03-30T15:43:41.786Z,8.25
2019-03-30T15:46:10.420Z,8.73
2019-03-30T15:48:38.896Z,8.18
2019-03-30T15:51:07.379Z,9.33
2019-03-30T15:53:35.831Z,7.22
2019-03-30T15:56:04.412Z,8.25
2019-03-30T15:58:32.884Z,8.60
2019-03-30T16:01:01.809Z,8.30
2019-03-30T16:03:30.279Z,9.20
2019-03-30T16:05:58.727Z,8.40
2019-03-30T16:08:29.392Z,8.53
2019-03-30T16:10:57.821Z,8.70
2019-03-30T16:13:26.388Z,8.40
2019-03-30T16:15:54.859Z,7.60
2019-03-30T16:18:23.349Z,7.58
2019-03-30T16:20:51.922Z,8.03
2019-03-30T16:23:20.367Z,7.78
2019-03-30T16:25:48.843Z,7.45
2019-03-30T16:28:17.355Z,8.00
2019-03-30T16:30:45.903Z,7.80
2019-03-30T16:33:14.379Z,8.23
2019-03-30T16:35:42.863Z,7.40
2019-03-30T16:38:11.324Z,9.18
2019-03-30T16:40:39.795Z,8.33
2019-03-30T16:43:08.708Z,8.05
2019-03-30T16:45:37.320Z,9.20
2019-03-30T16:48:05.888Z,8.70
2019-03-30T16:50:34.778Z,8.53
2019-03-30T16:53:03.265Z,9.40
2019-03-30T16:55:31.791Z,8.75
2019-03-30T16:58:00.303Z,8.68
2019-03-30T17:00:33.395Z,8.38
2019-03-30T17:03:03.722Z,8.43
2019-03-30T17:05:32.168Z,8.60
2019-03-30T17:08:00.624Z,8.85
2019-03-30T17:10:29.190Z,9.03
2019-03-30T17:12:57.638Z,8.30
2019-03-30T17:15:26.094Z,9.23
2019-03-30T17:17:54.576Z,8.43
2019-03-30T17:20:23.038Z,8.53
2019-03-30T17:22:51.516Z,8.75
2019-03-30T17:25:19.970Z,8.75
2019-03-30T17:27:58.276Z,8.75
2019-03-30T17:30:18.608Z,10.03
2019-03-30T17:32:47.112Z,10.28
2019-03-30T17:35:15.555Z,11.60
2019-03-30T17:37:44.015Z,11.83
2019-03-30T17:40:12.829Z,11.08
2019-03-30T17:42:41.277Z,11.25
2019-03-30T17:45:10.510Z,11.43
2019-03-30T17:47:39.020Z,11.45
2019-03-30T17:50:08.819Z,12.03
2019-03-30T17:52:37.334Z,12.23
2019-03-30T17:55:06.247Z,12.98
2019-03-30T17:57:34.726Z,12.80
2019-03-30T18:00:07.876Z,12.63
2019-03-30T18:02:34.893Z,10.75
2019-03-30T18:05:03.519Z,11.18
2019-03-30T18:07:31.987Z,11.70
2019-03-30T18:10:03.212Z,11.28
2019-03-30T18:12:30.639Z,10.25
2019-03-30T18:14:59.107Z,11.85
2019-03-30T18:17:27.563Z,11.25
2019-03-30T18:19:56.040Z,11.20
2019-03-30T18:22:24.491Z,11.20
2019-03-30T18:24:53.038Z,11.75
2019-03-30T18:27:21.487Z,11.70
2019-03-30T18:29:49.981Z,12.80
2019-03-30T18:32:21.360Z,12.80
2019-03-30T18:34:51.103Z,23.98
2019-03-30T18:37:20.275Z,18.98
2019-03-30T18:39:48.899Z,15.98
2019-03-30T18:42:17.352Z,16.97
2019-03-30T18:44:46.578Z,16.50
2019-03-30T18:47:15.089Z,15.32
2019-03-30T18:49:43.538Z,14.43
2019-03-30T18:52:12.914Z,14.05
2019-03-30T18:54:42.041Z,14.45
2019-03-30T18:57:10.510Z,25.97
2019-03-30T18:59:39.571Z,30.27
2019-03-30T19:02:08.079Z,32.30
2019-03-30T19:04:36.614Z,53.23
2019-03-30T19:07:05.164Z,40.85
2019-03-30T19:09:33.637Z,24.70
2019-03-30T19:12:02.201Z,24.00
2019-03-30T19:14:30.652Z,23.85
2019-03-30T19:16:59.131Z,24.23
2019-03-30T19:19:27.621Z,21.33
2019-03-30T19:21:56.189Z,22.93
2019-03-30T19:24:24.682Z,22.05
2019-03-30T19:26:53.215Z,20.85
2019-03-30T19:29:21.705Z,18.85
2019-03-30T19:31:51.005Z,20.00
2019-03-30T19:34:19.494Z,19.92
2019-03-30T19:36:47.943Z,17.00
2019-03-30T19:39:16.433Z,16.75
2019-03-30T19:41:44.894Z,17.17
2019-03-30T19:44:13.375Z,18.40
2019-03-30T19:46:41.894Z,16.30
2019-03-30T19:49:10.387Z,16.80
2019-03-30T19:51:38.863Z,16.73
2019-03-30T19:54:07.344Z,18.07
2019-03-30T19:56:35.789Z,21.30
2019-03-30T19:59:10.597Z,22.87
2019-03-30T20:01:34.800Z,22.60
2019-03-30T20:04:03.255Z,21.40
2019-03-30T20:06:31.800Z,20.37
2019-03-30T20:09:00.276Z,20.40
2019-03-30T20:11:28.757Z,19.43
2019-03-30T20:13:57.241Z,19.33
2019-03-30T20:16:25.718Z,21.10
2019-03-30T20:19:10.976Z,23.33
2019-03-30T20:21:24.390Z,21.83
2019-03-30T20:23:52.877Z,23.50
2019-03-30T20:26:21.466Z,24.30
2019-03-30T20:28:49.948Z,24.83
2019-03-30T20:31:18.438Z,25.60
2019-03-30T20:33:46.882Z,24.93
2019-03-30T20:36:15.409Z,24.27
2019-03-30T20:38:43.900Z,23.13
2019-03-30T20:41:12.339Z,24.80
2019-03-30T20:43:40.830Z,22.07
2019-03-30T20:46:09.409Z,22.60
2019-03-30T20:48:37.989Z,21.23
2019-03-30T20:51:06.503Z,21.70
2019-03-30T20:53:34.983Z,22.97
2019-03-30T20:56:03.473Z,24.33
2019-03-30T20:58:31.922Z,23.33
2019-03-30T21:01:00.406Z,22.43
2019-03-30T21:03:28.865Z,21.43
2019-03-30T21:05:57.322Z,22.83
2019-03-30T21:08:25.811Z,20.33
2019-03-30T21:10:54.260Z,21.13
2019-03-30T21:13:22.739Z,20.97
2019-03-30T21:15:51.191Z,23.57
2019-03-30T21:18:19.678Z,24.97
2019-03-30T21:20:48.146Z,23.37
2019-03-30T21:23:16.599Z,22.37
2019-03-30T21:25:45.083Z,21.13
2019-03-30T21:28:13.528Z,20.07
2019-03-30T21:30:42.011Z,19.87
2019-03-30T21:33:10.460Z,19.57
2019-03-30T21:35:38.935Z,20.17
2019-03-30T21:38:07.404Z,19.13
2019-03-30T21:40:36.042Z,21.70
2019-03-30T21:43:04.584Z,20.70
2019-03-30T21:45:33.047Z,19.27
2019-03-30T21:48:01.494Z,19.90
2019-03-30T21:50:29.980Z,19.37
2019-03-30T21:52:58.426Z,19.73
2019-03-30T21:55:26.911Z,20.73
2019-03-30T21:57:55.610Z,20.17
2019-03-30T22:00:34.532Z,21.47
2019-03-30T22:03:03.098Z,21.27
2019-03-30T22:05:32.079Z,22.37
2019-03-30T22:08:00.603Z,23.33
2019-03-30T22:10:29.228Z,24.00
2019-03-30T22:12:57.735Z,24.27
2019-03-30T22:15:27.750Z,23.43
2019-03-30T22:17:56.731Z,24.10
2019-03-30T22:20:25.620Z,24.87
2019-03-30T22:22:54.176Z,23.40
2019-03-30T22:25:22.639Z,24.60
2019-03-30T22:27:51.127Z,24.20
2019-03-30T22:30:25.007Z,25.00
2019-03-30T22:32:49.832Z,23.53
2019-03-30T22:35:18.272Z,24.20
2019-03-30T22:37:46.761Z,23.70
2019-03-30T22:40:15.383Z,23.67
2019-03-30T22:42:43.837Z,24.77
2019-03-30T22:45:12.430Z,23.63
2019-03-30T22:47:40.907Z,23.57
2019-03-30T22:50:09.996Z,23.40
2019-03-30T22:52:38.511Z,24.77
2019-03-30T22:55:07.607Z,23.43
2019-03-30T22:57:36.147Z,23.63
2019-03-30T23:00:10.999Z,24.67
2019-03-30T23:02:40.521Z,22.10
2019-03-30T23:05:09.549Z,22.90
2019-03-30T23:07:38.110Z,23.40
2019-03-30T23:10:07.398Z,23.07
2019-03-30T23:12:35.874Z,25.00
2019-03-30T23:15:04.668Z,24.23
2019-03-30T23:17:33.302Z,23.13
2019-03-30T23:20:01.746Z,23.30
2019-03-30T23:22:30.234Z,26.93
2019-03-30T23:24:58.685Z,27.57
2019-03-30T23:27:27.163Z,28.70
2019-03-30T23:29:55.610Z,27.17
2019-03-30T23:32:24.086Z,25.07
2019-03-30T23:34:52.566Z,24.83
2019-03-30T23:37:21.042Z,26.13
2019-03-30T23:39:49.506Z,27.63
2019-03-30T23:42:17.990Z,26.17
2019-03-30T23:44:47.051Z,29.60
2019-03-30T23:47:15.527Z,29.37
2019-03-30T23:49:43.988Z,29.27
2019-03-30T23:52:12.470Z,27.03
2019-03-30T23:54:40.936Z,28.27
2019-03-30T23:57:09.407Z,28.87
2019-03-30T23:59:37.879Z,28.30
